Time;durP1;ratioP1;P1;durP2;ratioP2;P2;SDS_P1;SDS_P2;PMS_P1;PMS_P2;Temp;Humidity;BMP_temperature;BMP_pressure;BME280_temperature;BME280_humidity;BME280_pressure;Samples;Min_cycle;Max_cycle;Signal;HPM_P1;HPM_P2
2020/12/18 00:00:49;;;;;;;20.23;10.93;;;4.40;99.90;;;;;;5001546;28;20096;-74
2020/12/18 00:03:16;;;;;;;20.27;11.65;;;4.50;99.90;;;;;;5002757;28;20049;-74
2020/12/18 00:05:43;;;;;;;20.35;11.73;;;4.50;99.90;;;;;;4996140;28;20137;-74
2020/12/18 00:08:09;;;;;;;24.63;11.57;;;4.50;99.90;;;;;;4999462;28;20153;-74
2020/12/18 00:10:39;;;;;;;21.77;11.60;;;4.50;99.90;;;;;;4996122;28;20105;-74
2020/12/18 00:13:06;;;;;;;17.35;10.77;;;4.40;99.90;;;;;;4994163;28;20271;-73
2020/12/18 00:15:32;;;;;;;16.55;9.57;;;4.40;99.90;;;;;;4990246;28;20367;-73
2020/12/18 00:17:58;;;;;;;20.25;9.38;;;4.50;99.90;;;;;;4990965;28;20060;-73
2020/12/18 00:20:25;;;;;;;14.95;8.95;;;4.40;99.90;;;;;;4989807;28;20156;-73
2020/12/18 00:22:51;;;;;;;15.30;9.25;;;4.40;99.90;;;;;;4988757;28;20060;-74
2020/12/18 00:25:18;;;;;;;15.77;10.02;;;4.30;99.60;;;;;;4988678;28;20137;-74
2020/12/18 00:27:44;;;;;;;19.80;9.82;;;4.30;99.90;;;;;;4986430;28;20749;-74
2020/12/18 00:30:12;;;;;;;18.75;10.40;;;4.20;99.90;;;;;;4987694;28;20288;-74
2020/12/18 00:32:39;;;;;;;18.95;9.77;;;4.30;99.90;;;;;;4988403;28;20050;-73
2020/12/18 00:35:08;;;;;;;20.83;12.40;;;4.20;99.90;;;;;;4988240;28;20415;-74
2020/12/18 00:37:34;;;;;;;34.15;16.13;;;4.20;99.40;;;;;;4995675;28;20460;-74
2020/12/18 00:40:02;;;;;;;21.42;14.30;;;4.10;99.90;;;;;;4999301;28;20141;-74
2020/12/18 00:42:28;;;;;;;32.75;17.65;;;4.00;99.70;;;;;;4998802;28;20065;-74
2020/12/18 00:44:55;;;;;;;33.42;16.55;;;3.90;98.90;;;;;;5006605;28;20053;-74
2020/12/18 00:47:21;;;;;;;40.10;17.95;;;3.70;98.40;;;;;;5005415;28;20143;-73
2020/12/18 00:49:48;;;;;;;127.05;21.58;;;3.50;98.90;;;;;;4999743;28;20188;-74
2020/12/18 00:52:14;;;;;;;77.30;19.67;;;3.40;99.10;;;;;;4997910;28;20229;-74
2020/12/18 00:54:40;;;;;;;33.60;13.07;;;3.30;99.40;;;;;;5009591;28;20041;-73
2020/12/18 00:57:07;;;;;;;28.20;10.32;;;3.30;99.70;;;;;;5006062;28;20084;-73
2020/12/18 00:59:33;;;;;;;26.95;11.45;;;3.20;99.90;;;;;;5020845;28;20139;-73
2020/12/18 01:02:00;;;;;;;54.05;20.08;;;3.10;99.60;;;;;;5004177;28;20067;-73
2020/12/18 01:04:27;;;;;;;86.85;18.30;;;3.10;99.90;;;;;;5005057;28;20077;-73
2020/12/18 01:06:54;;;;;;;302.02;27.90;;;3.00;99.90;;;;;;5008443;28;20070;-74
2020/12/18 01:09:22;;;;;;;392.77;32.05;;;2.90;99.90;;;;;;5005498;28;20077;-74
2020/12/18 01:11:49;;;;;;;189.38;19.55;;;2.80;99.90;;;;;;5006861;28;20084;-73
2020/12/18 01:14:16;;;;;;;331.40;36.55;;;2.70;99.90;;;;;;5008485;28;20495;-73
2020/12/18 01:16:43;;;;;;;261.73;30.48;;;2.60;99.90;;;;;;5007595;28;20092;-74
2020/12/18 01:19:10;;;;;;;43.50;15.27;;;2.50;99.70;;;;;;5007727;28;20127;-73
2020/12/18 01:21:37;;;;;;;53.00;19.80;;;2.40;99.90;;;;;;5002974;28;20092;-73
2020/12/18 01:24:03;;;;;;;180.63;27.27;;;2.40;99.80;;;;;;4991566;28;20180;-74
2020/12/18 01:26:29;;;;;;;350.63;36.60;;;2.30;99.90;;;;;;4993294;28;20061;-74
2020/12/18 01:28:56;;;;;;;165.50;20.58;;;2.30;99.90;;;;;;4998417;28;20570;-73
2020/12/18 01:31:22;;;;;;;16.73;9.55;;;2.30;99.90;;;;;;5001553;28;20092;-73
2020/12/18 01:33:51;;;;;;;17.02;10.55;;;2.40;99.90;;;;;;4998853;28;20219;-73
2020/12/18 01:36:19;;;;;;;17.55;11.80;;;2.50;99.90;;;;;;5006452;28;20069;-74
2020/12/18 01:38:46;;;;;;;77.20;27.83;;;2.50;99.90;;;;;;4991313;28;20042;-74
2020/12/18 01:41:13;;;;;;;221.85;31.38;;;2.50;99.70;;;;;;4997679;28;20220;-74
2020/12/18 01:43:39;;;;;;;82.63;23.02;;;2.50;99.40;;;;;;5000218;28;20196;-73
2020/12/18 01:46:11;;;;;;;24.00;13.75;;;2.40;99.30;;;;;;4994370;28;20136;-73
2020/12/18 01:48:40;;;;;;;21.45;13.32;;;2.30;99.60;;;;;;5004183;28;20056;-73
2020/12/18 01:51:09;;;;;;;146.48;32.45;;;2.30;99.60;;;;;;5000385;28;20054;-73
2020/12/18 01:53:40;;;;;;;44.55;20.58;;;2.30;99.60;;;;;;4990490;28;20672;-74
2020/12/18 01:56:07;;;;;;;28.83;16.58;;;2.20;99.80;;;;;;5004653;28;20124;-73
2020/12/18 01:58:37;;;;;;;30.88;17.42;;;2.20;99.90;;;;;;5008653;28;20049;-73
2020/12/18 02:01:06;;;;;;;33.10;18.45;;;2.20;99.90;;;;;;5005834;28;20635;-73
2020/12/18 02:03:33;;;;;;;71.97;23.52;;;2.20;99.90;;;;;;5004887;28;20081;-74
2020/12/18 02:06:05;;;;;;;167.93;25.83;;;2.20;99.90;;;;;;5008371;28;20164;-73
2020/12/18 02:08:32;;;;;;;317.83;37.90;;;2.10;99.60;;;;;;5009069;28;20510;-73
2020/12/18 02:10:59;;;;;;;290.65;31.20;;;2.00;99.60;;;;;;5008610;28;20356;-73
2020/12/18 02:13:27;;;;;;;356.55;34.22;;;2.00;99.70;;;;;;5008413;28;20048;-73
2020/12/18 02:15:55;;;;;;;259.52;28.35;;;1.90;99.60;;;;;;5005696;28;20582;-73
2020/12/18 02:18:23;;;;;;;235.82;25.15;;;1.90;99.70;;;;;;5003298;28;20124;-73
2020/12/18 02:20:50;;;;;;;366.70;38.72;;;1.90;99.70;;;;;;5007093;28;21605;-73
2020/12/18 02:23:17;;;;;;;67.05;12.57;;;1.90;99.60;;;;;;5007962;28;20407;-73
2020/12/18 02:26:05;;;;;;;82.05;11.75;;;1.80;99.60;;;;;;5005137;28;20497;-73
2020/12/18 02:28:36;;;;;;;299.25;28.35;;;1.70;99.70;;;;;;5008237;28;20062;-73
2020/12/18 02:31:02;;;;;;;242.40;24.02;;;1.70;99.90;;;;;;5008633;28;20119;-73
2020/12/18 02:33:30;;;;;;;387.73;33.90;;;1.70;99.90;;;;;;5005400;28;20081;-73
2020/12/18 02:35:59;;;;;;;133.68;18.40;;;1.70;99.90;;;;;;5010643;28;20048;-73
2020/12/18 02:38:25;;;;;;;71.00;11.82;;;1.60;99.90;;;;;;5008666;28;20121;-73
2020/12/18 02:40:53;;;;;;;54.15;11.25;;;1.60;99.90;;;;;;5010648;28;20057;-74
2020/12/18 02:43:19;;;;;;;172.52;17.52;;;1.50;99.90;;;;;;5010561;28;20050;-74
2020/12/18 02:45:47;;;;;;;371.70;33.95;;;1.50;99.90;;;;;;5010109;28;20050;-74
2020/12/18 02:48:13;;;;;;;92.35;13.15;;;1.50;99.90;;;;;;5018223;28;20556;-74
2020/12/18 02:50:40;;;;;;;55.75;11.27;;;1.60;99.90;;;;;;5010433;28;20073;-74
2020/12/18 02:53:14;;;;;;;90.60;13.68;;;1.70;99.90;;;;;;5011854;28;20521;-74
2020/12/18 02:55:41;;;;;;;46.45;11.18;;;1.80;99.90;;;;;;5005010;28;20041;-74
2020/12/18 02:58:12;;;;;;;42.15;10.65;;;1.80;99.90;;;;;;5011878;28;20060;-74
2020/12/18 03:00:40;;;;;;;314.10;29.15;;;2.00;99.90;;;;;;5012294;28;20129;-74
2020/12/18 03:03:07;;;;;;;84.72;12.85;;;2.00;99.90;;;;;;5013833;28;20077;-74
2020/12/18 03:05:34;;;;;;;90.38;13.70;;;2.00;99.90;;;;;;5021677;28;20145;-74
2020/12/18 03:08:01;;;;;;;51.13;9.52;;;2.00;99.90;;;;;;5014703;28;20137;-73
2020/12/18 03:10:28;;;;;;;222.65;22.45;;;2.10;99.90;;;;;;5020654;28;20471;-74
2020/12/18 03:12:54;;;;;;;75.82;11.25;;;2.10;99.90;;;;;;5013183;28;20478;-74
2020/12/18 03:15:21;;;;;;;34.30;10.00;;;2.10;99.90;;;;;;5011773;28;20104;-74
2020/12/18 03:17:48;;;;;;;68.43;11.25;;;2.10;99.90;;;;;;5011170;28;20124;-74
2020/12/18 03:20:14;;;;;;;274.77;25.33;;;2.20;99.90;;;;;;5013215;28;20056;-74
2020/12/18 03:22:45;;;;;;;67.32;10.25;;;2.20;99.80;;;;;;5012279;28;20045;-74
2020/12/18 03:25:12;;;;;;;122.65;15.20;;;2.10;99.90;;;;;;5011778;28;20041;-74
2020/12/18 03:27:42;;;;;;;176.32;19.23;;;2.00;99.90;;;;;;5017124;28;20042;-74
2020/12/18 03:30:08;;;;;;;303.90;29.05;;;2.10;99.90;;;;;;5010708;28;20481;-74
2020/12/18 03:32:35;;;;;;;149.60;17.42;;;2.10;99.90;;;;;;5015514;28;20137;-74
2020/12/18 03:35:05;;;;;;;43.03;8.55;;;2.20;99.90;;;;;;5020162;28;20077;-74
2020/12/18 03:37:32;;;;;;;53.97;11.00;;;2.10;99.90;;;;;;5011733;28;20057;-74
2020/12/18 03:39:58;;;;;;;47.05;9.13;;;2.00;99.90;;;;;;5010640;28;20132;-73
2020/12/18 03:42:25;;;;;;;96.68;13.10;;;2.00;99.90;;;;;;5006609;28;20132;-74
2020/12/18 03:44:51;;;;;;;192.40;21.02;;;2.00;99.60;;;;;;5013256;28;20120;-74
2020/12/18 03:47:17;;;;;;;39.72;9.43;;;1.90;99.30;;;;;;5011432;28;20125;-75
2020/12/18 03:49:44;;;;;;;41.90;9.35;;;1.60;99.50;;;;;;5010016;28;20064;-74
2020/12/18 03:52:10;;;;;;;17.23;7.07;;;1.60;99.90;;;;;;5016203;28;20128;-74
2020/12/18 03:54:37;;;;;;;44.70;9.15;;;1.70;99.90;;;;;;5015778;28;20132;-74
2020/12/18 03:57:03;;;;;;;78.35;10.88;;;1.70;99.80;;;;;;5008687;28;20562;-75
2020/12/18 03:59:30;;;;;;;113.28;13.98;;;1.70;99.60;;;;;;5023133;28;20103;-74
2020/12/18 04:01:56;;;;;;;134.65;15.82;;;1.70;99.60;;;;;;5011215;28;20100;-74
2020/12/18 04:04:22;;;;;;;99.60;21.35;;;1.70;99.70;;;;;;5013948;28;20048;-74
2020/12/18 04:06:50;;;;;;;53.40;19.35;;;1.70;99.60;;;;;;5011709;28;20100;-74
2020/12/18 04:09:17;;;;;;;181.10;26.67;;;1.70;99.90;;;;;;5019617;28;20053;-74
2020/12/18 04:11:44;;;;;;;261.02;30.92;;;1.70;99.50;;;;;;5013036;28;20045;-74
2020/12/18 04:14:11;;;;;;;118.95;20.92;;;1.70;99.50;;;;;;5013381;28;20100;-75
2020/12/18 04:16:37;;;;;;;343.33;32.08;;;1.60;99.40;;;;;;5010425;28;20448;-74
2020/12/18 04:19:04;;;;;;;315.25;25.98;;;1.60;99.80;;;;;;5003515;28;20041;-74
2020/12/18 04:21:31;;;;;;;49.80;10.05;;;1.60;99.90;;;;;;5010720;28;20046;-74
2020/12/18 04:23:58;;;;;;;42.47;9.95;;;1.60;99.90;;;;;;5013775;28;20095;-75
2020/12/18 04:26:25;;;;;;;49.25;11.40;;;1.70;99.90;;;;;;5010083;28;20054;-75
2020/12/18 04:28:51;;;;;;;142.40;17.23;;;1.70;99.90;;;;;;5009302;28;20758;-74
2020/12/18 04:31:17;;;;;;;164.25;20.70;;;1.70;99.60;;;;;;5009854;28;20062;-74
2020/12/18 04:33:44;;;;;;;114.70;16.80;;;1.70;99.60;;;;;;5013322;28;20326;-74
2020/12/18 04:36:10;;;;;;;92.18;13.32;;;1.60;99.50;;;;;;5010928;28;20133;-74
2020/12/18 04:38:37;;;;;;;121.32;14.30;;;1.60;99.60;;;;;;5011289;28;20046;-74
2020/12/18 04:41:04;;;;;;;273.25;24.20;;;1.50;99.50;;;;;;4996539;28;20088;-74
2020/12/18 04:43:31;;;;;;;229.38;23.35;;;1.50;99.60;;;;;;5009748;28;20579;-74
2020/12/18 04:45:59;;;;;;;85.57;13.23;;;1.40;99.50;;;;;;5009388;28;20132;-74
2020/12/18 04:48:27;;;;;;;28.33;7.93;;;1.20;99.60;;;;;;5011061;28;20103;-75
2020/12/18 04:50:58;;;;;;;104.47;13.52;;;1.10;99.90;;;;;;5002288;28;20042;-74
2020/12/18 04:53:41;;;;;;;31.40;9.23;;;1.00;99.90;;;;;;5010922;28;20042;-74
2020/12/18 04:56:11;;;;;;;48.90;12.82;;;0.90;99.90;;;;;;5009617;28;20136;-74
2020/12/18 04:58:38;;;;;;;17.70;8.43;;;0.90;99.90;;;;;;5019346;28;20045;-74
2020/12/18 05:01:08;;;;;;;26.50;9.98;;;0.80;99.90;;;;;;5016790;28;20050;-75
2020/12/18 05:03:35;;;;;;;16.05;8.48;;;0.80;99.90;;;;;;5009619;28;20057;-74
2020/12/18 05:06:06;;;;;;;26.35;11.00;;;0.80;99.90;;;;;;5009984;28;20046;-74
2020/12/18 05:08:33;;;;;;;10.90;6.38;;;0.70;99.90;;;;;;5018309;28;20049;-74
2020/12/18 05:11:23;;;;;;;12.35;6.78;;;0.80;99.90;;;;;;5017853;28;20125;-74
2020/12/18 05:13:52;;;;;;;17.80;7.68;;;0.80;99.90;;;;;;5003684;28;20092;-74
2020/12/18 05:16:20;;;;;;;18.05;8.02;;;0.90;99.90;;;;;;5008169;28;20048;-75
2020/12/18 05:18:47;;;;;;;15.82;8.00;;;0.90;99.90;;;;;;5008846;28;20141;-74
2020/12/18 05:21:15;;;;;;;14.32;7.45;;;0.90;99.60;;;;;;5008375;28;20077;-74
2020/12/18 05:23:57;;;;;;;34.53;9.43;;;1.00;99.90;;;;;;5006072;28;20112;-74
2020/12/18 05:26:28;;;;;;;82.70;13.18;;;0.90;99.30;;;;;;5010513;28;20789;-74
2020/12/18 05:29:09;;;;;;;64.63;13.85;;;0.80;99.50;;;;;;5012392;28;20166;-74
2020/12/18 05:31:36;;;;;;;36.40;10.75;;;0.90;99.90;;;;;;5008961;28;20445;-74
2020/12/18 05:34:04;;;;;;;38.10;9.20;;;1.10;99.90;;;;;;5008259;28;20471;-75
2020/12/18 05:36:31;;;;;;;20.10;8.32;;;1.20;99.90;;;;;;5021089;28;20453;-75
2020/12/18 05:38:58;;;;;;;11.77;6.75;;;1.20;99.40;;;;;;5016038;28;20044;-75
2020/12/18 05:41:26;;;;;;;14.10;7.25;;;1.20;99.40;;;;;;5012185;28;20318;-74
2020/12/18 05:43:53;;;;;;;80.15;10.68;;;1.30;99.10;;;;;;5008407;28;20082;-75
2020/12/18 05:46:23;;;;;;;47.03;10.00;;;1.40;99.10;;;;;;5007611;28;20415;-75
2020/12/18 05:48:59;;;;;;;66.55;10.55;;;1.40;98.90;;;;;;5009213;28;20045;-74
2020/12/18 05:51:37;;;;;;;202.57;20.35;;;1.40;99.20;;;;;;5008589;28;20068;-75
2020/12/18 05:54:17;;;;;;;138.65;16.23;;;1.50;99.00;;;;;;5009472;28;20057;-75
2020/12/18 05:56:54;;;;;;;58.55;9.48;;;1.50;99.00;;;;;;5013274;28;20548;-75
2020/12/18 05:59:21;;;;;;;50.35;8.82;;;1.50;98.40;;;;;;5016328;28;20076;-74
2020/12/18 06:01:53;;;;;;;218.07;26.58;;;1.40;98.20;;;;;;5015687;28;20121;-75
2020/12/18 06:04:22;;;;;;;206.77;25.08;;;1.30;98.60;;;;;;5014222;28;20157;-74
2020/12/18 06:06:53;;;;;;;75.55;12.82;;;1.30;99.00;;;;;;5012596;28;20136;-74
2020/12/18 06:09:23;;;;;;;76.05;13.68;;;1.10;99.20;;;;;;5008202;28;20133;-74
2020/12/18 06:11:49;;;;;;;109.03;20.75;;;1.10;99.80;;;;;;5006404;28;20045;-75
2020/12/18 06:14:18;;;;;;;39.58;16.70;;;1.10;99.90;;;;;;4993806;28;20042;-74
2020/12/18 06:16:49;;;;;;;111.68;21.50;;;1.10;99.90;;;;;;5007451;28;20370;-74
2020/12/18 06:19:20;;;;;;;243.35;27.75;;;1.10;99.80;;;;;;5008290;28;20072;-74
2020/12/18 06:21:58;;;;;;;226.93;26.70;;;1.10;99.90;;;;;;5009085;28;20088;-74
2020/12/18 06:24:39;;;;;;;190.68;22.73;;;1.10;99.90;;;;;;5017469;28;20062;-74
2020/12/18 06:27:08;;;;;;;191.57;21.30;;;1.10;99.90;;;;;;5023640;28;20171;-74
2020/12/18 06:29:35;;;;;;;306.52;33.03;;;1.00;99.70;;;;;;5013811;28;20403;-74
2020/12/18 06:32:21;;;;;;;86.25;15.95;;;1.00;99.70;;;;;;5013805;28;20138;-75
2020/12/18 06:34:48;;;;;;;106.38;18.40;;;0.90;99.50;;;;;;5007522;28;20042;-75
2020/12/18 06:37:25;;;;;;;217.88;24.70;;;0.90;99.70;;;;;;5007441;28;20362;-74
2020/12/18 06:39:52;;;;;;;102.47;15.43;;;1.00;99.60;;;;;;5014890;28;20056;-74
2020/12/18 06:42:21;;;;;;;136.00;16.88;;;0.90;99.40;;;;;;5012362;28;20420;-74
2020/12/18 06:44:52;;;;;;;107.10;16.08;;;0.80;99.70;;;;;;5009968;28;20077;-74
2020/12/18 06:47:25;;;;;;;204.93;21.38;;;0.80;99.80;;;;;;5023136;28;20104;-75
2020/12/18 06:50:02;;;;;;;148.80;15.00;;;0.80;99.70;;;;;;5010085;28;20172;-74
2020/12/18 06:52:48;;;;;;;133.77;17.35;;;0.80;99.60;;;;;;5015282;28;20042;-74
2020/12/18 06:55:26;;;;;;;96.28;13.68;;;0.70;99.80;;;;;;5008186;28;20268;-74
2020/12/18 06:58:08;;;;;;;197.27;25.00;;;0.70;99.70;;;;;;5001281;28;20074;-74
2020/12/18 07:00:56;;;;;;;200.73;22.27;;;0.70;99.70;;;;;;5009465;28;20059;-75
2020/12/18 07:03:43;;;;;;;159.82;23.23;;;0.70;99.80;;;;;;5002641;28;20038;-74
2020/12/18 07:06:21;;;;;;;151.73;23.13;;;0.60;99.70;;;;;;5006630;28;20448;-74
2020/12/18 07:08:48;;;;;;;91.57;14.13;;;0.60;99.60;;;;;;5004724;28;20070;-74
2020/12/18 07:11:17;;;;;;;175.20;17.73;;;0.50;99.60;;;;;;4996029;28;20046;-74
2020/12/18 07:13:47;;;;;;;52.35;9.43;;;0.50;99.70;;;;;;5006089;28;20419;-74
2020/12/18 07:16:16;;;;;;;104.82;13.38;;;0.40;99.70;;;;;;5003042;28;20180;-74
2020/12/18 07:18:44;;;;;;;144.00;19.98;;;0.40;99.80;;;;;;5006541;28;20133;-74
2020/12/18 07:21:11;;;;;;;62.78;11.98;;;0.30;99.90;;;;;;5005778;28;20133;-74
2020/12/18 07:23:43;;;;;;;133.68;19.08;;;0.30;99.90;;;;;;5008047;28;20073;-75
2020/12/18 07:26:11;;;;;;;99.35;16.00;;;0.30;99.90;;;;;;5012805;28;20104;-75
2020/12/18 07:28:39;;;;;;;95.25;17.58;;;0.30;99.90;;;;;;5014312;28;20049;-75
2020/12/18 07:31:19;;;;;;;109.57;19.10;;;0.30;99.90;;;;;;5017331;28;20053;-75
2020/12/18 07:34:00;;;;;;;33.25;8.65;;;0.30;99.90;;;;;;5011686;28;20597;-74
2020/12/18 07:36:28;;;;;;;147.93;23.02;;;0.40;99.90;;;;;;5010348;28;20528;-75
2020/12/18 07:38:57;;;;;;;61.00;13.30;;;0.50;99.90;;;;;;5014915;28;20307;-74
2020/12/18 07:41:26;;;;;;;23.27;8.45;;;0.50;99.90;;;;;;5008815;28;20127;-74
2020/12/18 07:43:53;;;;;;;103.05;21.30;;;0.60;99.90;;;;;;5007741;28;20531;-75
2020/12/18 07:46:19;;;;;;;107.72;16.85;;;0.60;99.80;;;;;;5008455;28;20073;-74
2020/12/18 07:48:47;;;;;;;167.40;29.25;;;0.60;99.90;;;;;;5006197;28;20140;-74
2020/12/18 07:51:19;;;;;;;37.78;12.05;;;0.60;99.80;;;;;;5006858;28;20164;-74
2020/12/18 07:53:50;;;;;;;71.18;19.77;;;0.50;99.90;;;;;;5010748;28;20054;-74
2020/12/18 07:56:18;;;;;;;117.20;23.48;;;0.40;99.90;;;;;;5012519;28;20492;-75
2020/12/18 07:58:50;;;;;;;273.02;49.28;;;0.40;99.90;;;;;;5020272;28;20383;-74
2020/12/18 08:01:20;;;;;;;211.73;47.75;;;0.50;99.90;;;;;;5011526;28;20216;-74
2020/12/18 08:03:48;;;;;;;306.95;60.22;;;0.40;99.90;;;;;;5009121;28;20232;-75
2020/12/18 08:06:21;;;;;;;247.90;57.80;;;0.30;99.90;;;;;;5009749;28;20129;-74
2020/12/18 08:09:00;;;;;;;63.05;24.35;;;0.30;99.90;;;;;;5012675;28;20049;-74
2020/12/18 08:11:29;;;;;;;74.68;26.35;;;0.20;99.90;;;;;;5012018;28;20185;-75
2020/12/18 08:13:57;;;;;;;68.72;22.52;;;0.20;99.90;;;;;;5003954;28;20109;-74
2020/12/18 08:16:26;;;;;;;117.40;32.88;;;0.30;99.90;;;;;;5015200;28;20046;-74
2020/12/18 08:18:53;;;;;;;52.22;20.55;;;0.30;99.90;;;;;;5014993;28;20204;-74
2020/12/18 08:21:25;;;;;;;97.95;30.35;;;0.30;99.90;;;;;;5009139;28;20081;-75
2020/12/18 08:23:59;;;;;;;40.33;17.10;;;0.40;99.90;;;;;;5010026;28;20077;-75
2020/12/18 08:26:37;;;;;;;98.25;30.35;;;0.40;99.90;;;;;;5009195;28;20104;-74
2020/12/18 08:29:05;;;;;;;90.57;26.90;;;0.40;99.90;;;;;;5007929;28;20065;-74
2020/12/18 08:31:36;;;;;;;48.08;20.15;;;0.50;99.90;;;;;;5002699;28;20113;-74
2020/12/18 08:34:11;;;;;;;115.57;26.50;;;0.50;99.90;;;;;;5007356;28;20054;-74
2020/12/18 08:36:46;;;;;;;161.85;32.55;;;0.50;99.90;;;;;;5016120;28;20056;-74
2020/12/18 08:39:14;;;;;;;46.00;19.13;;;0.50;99.90;;;;;;5015514;28;20521;-74
2020/12/18 08:42:01;;;;;;;50.72;19.58;;;0.50;99.90;;;;;;5007488;28;20057;-74
2020/12/18 08:44:38;;;;;;;93.78;23.52;;;0.40;99.90;;;;;;5009511;28;20092;-74
2020/12/18 08:47:26;;;;;;;51.00;20.13;;;0.40;99.90;;;;;;5003181;28;20146;-75
2020/12/18 08:49:57;;;;;;;34.42;14.07;;;0.40;99.90;;;;;;5010096;28;20045;-75
2020/12/18 08:52:25;;;;;;;39.58;15.57;;;0.60;99.90;;;;;;5009786;28;20127;-75
2020/12/18 08:55:01;;;;;;;47.38;17.35;;;0.60;99.90;;;;;;5006993;28;20076;-75
2020/12/18 08:57:29;;;;;;;29.65;13.05;;;0.60;99.90;;;;;;5005537;28;20475;-74
2020/12/18 09:00:15;;;;;;;34.88;15.82;;;0.70;99.90;;;;;;5008084;28;20103;-75
2020/12/18 09:02:48;;;;;;;34.15;16.25;;;0.70;99.90;;;;;;5000624;28;20049;-75
2020/12/18 09:05:25;;;;;;;33.77;16.00;;;0.90;99.90;;;;;;5004564;28;20049;-74
2020/12/18 09:08:21;;;;;;;19.67;11.70;;;1.00;99.90;;;;;;5007072;28;20742;-74
2020/12/18 09:10:59;;;;;;;30.17;15.43;;;1.00;99.90;;;;;;5012321;28;20084;-74
2020/12/18 09:13:30;;;;;;;29.98;16.65;;;1.10;99.90;;;;;;5015778;28;20093;-75
2020/12/18 09:15:59;;;;;;;29.27;16.25;;;1.10;99.90;;;;;;5009519;28;20046;-75
2020/12/18 09:18:37;;;;;;;27.02;14.20;;;1.20;99.90;;;;;;5004223;28;20037;-75
2020/12/18 09:21:10;;;;;;;35.58;17.40;;;1.30;99.90;;;;;;5006924;28;20099;-74
2020/12/18 09:23:37;;;;;;;31.38;16.92;;;1.40;99.90;;;;;;5007962;28;20049;-74
2020/12/18 09:26:26;;;;;;;43.08;20.77;;;1.50;99.90;;;;;;5009200;28;20046;-75
2020/12/18 09:28:53;;;;;;;40.95;21.60;;;1.50;99.70;;;;;;5011600;28;20057;-75
2020/12/18 09:31:23;;;;;;;40.65;22.40;;;1.60;99.50;;;;;;4998199;28;20112;-75
2020/12/18 09:33:49;;;;;;;39.45;22.35;;;1.70;99.40;;;;;;5008206;28;20038;-75
2020/12/18 09:36:21;;;;;;;45.15;24.25;;;1.80;99.30;;;;;;5004678;28;20151;-75
2020/12/18 09:38:52;;;;;;;49.42;24.10;;;1.90;99.50;;;;;;5011536;28;20120;-75
2020/12/18 09:41:20;;;;;;;43.08;20.75;;;2.00;99.60;;;;;;5007875;28;20049;-75
2020/12/18 09:43:47;;;;;;;44.33;24.88;;;2.10;99.90;;;;;;4998982;28;20077;-75
2020/12/18 09:46:14;;;;;;;48.83;26.15;;;2.20;99.70;;;;;;5004847;28;20475;-75
2020/12/18 09:48:42;;;;;;;39.50;21.75;;;2.30;99.90;;;;;;5014322;28;20049;-74
2020/12/18 09:51:09;;;;;;;61.78;30.50;;;2.50;99.90;;;;;;4999679;28;20073;-75
2020/12/18 09:53:35;;;;;;;45.20;23.52;;;2.60;99.90;;;;;;5015097;28;20133;-75
2020/12/18 09:56:02;;;;;;;37.53;19.95;;;2.70;99.80;;;;;;5009562;28;20045;-75
2020/12/18 09:58:28;;;;;;;34.65;19.27;;;2.90;99.50;;;;;;5011567;28;20067;-75
2020/12/18 10:00:54;;;;;;;43.25;22.85;;;3.00;99.90;;;;;;5013350;28;20247;-74
2020/12/18 10:03:21;;;;;;;63.92;36.35;;;3.10;99.90;;;;;;5008882;28;20104;-74
2020/12/18 10:05:47;;;;;;;70.80;36.92;;;3.30;99.90;;;;;;5005425;28;20069;-75
2020/12/18 10:08:14;;;;;;;41.13;23.05;;;3.40;99.80;;;;;;5008448;28;20164;-75
2020/12/18 10:10:40;;;;;;;37.72;22.17;;;3.60;99.90;;;;;;5008661;28;20065;-75
2020/12/18 10:13:07;;;;;;;35.83;17.92;;;3.70;99.80;;;;;;5007801;28;20458;-76
2020/12/18 10:15:33;;;;;;;32.33;18.63;;;3.90;99.90;;;;;;5007280;28;20076;-74
2020/12/18 10:17:59;;;;;;;32.03;14.57;;;4.10;99.90;;;;;;5005839;28;20129;-75
2020/12/18 10:20:26;;;;;;;37.60;23.63;;;4.30;99.90;;;;;;5006655;28;20058;-75
2020/12/18 10:22:52;;;;;;;28.08;16.65;;;4.50;99.90;;;;;;5007260;28;20045;-75
2020/12/18 10:25:18;;;;;;;20.38;9.20;;;4.80;99.90;;;;;;5006776;28;20400;-75
2020/12/18 10:27:45;;;;;;;11.88;7.25;;;5.10;99.90;;;;;;5006694;28;20128;-75
2020/12/18 10:30:12;;;;;;;14.43;7.60;;;5.40;99.90;;;;;;5005870;28;20050;-75
2020/12/18 10:32:39;;;;;;;14.15;6.53;;;5.80;99.90;;;;;;5007276;28;20050;-75
2020/12/18 10:35:07;;;;;;;7.57;4.80;;;6.00;99.90;;;;;;5003111;28;20050;-75
2020/12/18 10:37:33;;;;;;;11.13;5.05;;;6.30;99.30;;;;;;5005868;28;20524;-75
2020/12/18 10:40:00;;;;;;;9.65;4.72;;;6.50;99.00;;;;;;5009304;28;20422;-74
2020/12/18 10:42:27;;;;;;;10.95;4.30;;;6.60;98.80;;;;;;5006090;28;20046;-75
2020/12/18 10:44:53;;;;;;;8.52;4.10;;;6.70;99.10;;;;;;4998364;28;20137;-75
2020/12/18 10:47:19;;;;;;;13.73;5.78;;;6.80;98.00;;;;;;5002016;28;20159;-75
2020/12/18 10:49:46;;;;;;;10.18;5.30;;;6.90;98.50;;;;;;5002830;28;20081;-75
2020/12/18 10:52:12;;;;;;;9.60;4.85;;;7.00;98.10;;;;;;5000465;28;20137;-75
2020/12/18 10:54:39;;;;;;;10.02;4.38;;;7.20;98.10;;;;;;5002103;28;20053;-75
2020/12/18 10:57:08;;;;;;;9.45;4.70;;;7.40;97.60;;;;;;5004641;28;20046;-74
2020/12/18 10:59:35;;;;;;;8.98;4.63;;;7.60;97.40;;;;;;5008749;28;20340;-74
2020/12/18 11:02:04;;;;;;;9.00;4.90;;;7.70;97.00;;;;;;5010773;28;20050;-75
2020/12/18 11:04:31;;;;;;;11.50;3.92;;;7.80;96.90;;;;;;5009895;28;20130;-75
2020/12/18 11:06:57;;;;;;;8.27;4.35;;;7.90;96.50;;;;;;5007257;28;20141;-75
2020/12/18 11:09:24;;;;;;;11.40;4.72;;;8.00;96.60;;;;;;5010374;28;20133;-75
2020/12/18 11:11:53;;;;;;;9.05;5.10;;;8.10;96.50;;;;;;5007999;28;20554;-75
2020/12/18 11:14:20;;;;;;;12.20;5.30;;;8.20;96.40;;;;;;5000384;28;20047;-75
2020/12/18 11:16:47;;;;;;;15.32;7.90;;;8.30;96.00;;;;;;5009645;28;20065;-76
2020/12/18 11:19:13;;;;;;;11.00;5.38;;;8.30;95.20;;;;;;5010718;28;20054;-75
2020/12/18 11:21:44;;;;;;;11.05;6.53;;;8.40;95.70;;;;;;5007427;28;20041;-76
2020/12/18 11:24:11;;;;;;;13.43;6.07;;;8.50;95.70;;;;;;5008314;28;20138;-75
2020/12/18 11:26:37;;;;;;;13.80;6.65;;;8.60;95.70;;;;;;5010730;28;20131;-75
2020/12/18 11:29:04;;;;;;;10.07;5.45;;;8.70;95.40;;;;;;5009980;28;20046;-74
2020/12/18 11:31:31;;;;;;;11.20;5.88;;;8.70;94.90;;;;;;5010144;28;20042;-75
2020/12/18 11:33:57;;;;;;;15.13;7.03;;;8.80;94.60;;;;;;5008243;28;20065;-76
2020/12/18 11:36:24;;;;;;;11.55;6.95;;;8.80;95.10;;;;;;5010603;28;20046;-75
2020/12/18 11:38:50;;;;;;;16.60;6.45;;;8.80;94.80;;;;;;5009959;28;20046;-75
2020/12/18 11:41:20;;;;;;;11.77;6.63;;;8.90;94.30;;;;;;5008339;28;20046;-75
2020/12/18 11:43:48;;;;;;;16.92;7.80;;;9.00;94.40;;;;;;5007909;28;20050;-75
2020/12/18 11:46:14;;;;;;;14.52;7.20;;;9.00;94.60;;;;;;5009405;28;20513;-75
2020/12/18 11:48:41;;;;;;;12.25;6.30;;;9.00;94.30;;;;;;5007283;28;20042;-76
2020/12/18 11:51:10;;;;;;;15.07;7.03;;;9.10;94.00;;;;;;5007695;28;20088;-76
2020/12/18 11:53:36;;;;;;;11.45;6.45;;;9.10;93.80;;;;;;5010642;28;20787;-76
2020/12/18 11:56:04;;;;;;;10.18;5.90;;;9.20;93.30;;;;;;5009583;28;20052;-76
2020/12/18 11:58:30;;;;;;;12.10;5.20;;;9.00;93.90;;;;;;5008848;28;20410;-75
2020/12/18 12:00:57;;;;;;;12.23;6.30;;;9.00;93.60;;;;;;5009007;28;20046;-76
2020/12/18 12:03:25;;;;;;;13.38;7.82;;;9.00;93.70;;;;;;5006827;28;20054;-76
2020/12/18 12:05:52;;;;;;;12.65;7.15;;;9.00;93.80;;;;;;5009797;28;20081;-76
2020/12/18 12:08:19;;;;;;;15.52;7.93;;;9.00;93.80;;;;;;5003632;28;20494;-75
2020/12/18 12:10:46;;;;;;;12.05;6.90;;;9.00;94.30;;;;;;5000068;28;20053;-76
2020/12/18 12:13:12;;;;;;;12.88;7.38;;;9.00;94.20;;;;;;5005214;28;20156;-76
2020/12/18 12:15:38;;;;;;;17.50;7.53;;;9.10;94.00;;;;;;5008833;28;20137;-75
2020/12/18 12:18:05;;;;;;;13.40;7.95;;;9.10;94.50;;;;;;5005855;28;20565;-76
2020/12/18 12:20:31;;;;;;;15.35;7.13;;;9.30;93.50;;;;;;5008292;28;20429;-75
2020/12/18 12:22:57;;;;;;;14.25;7.60;;;9.30;93.50;;;;;;5008831;28;20187;-76
2020/12/18 12:25:24;;;;;;;11.93;7.22;;;9.40;93.70;;;;;;5006638;28;20080;-75
2020/12/18 12:27:59;;;;;;;13.82;8.13;;;9.40;93.60;;;;;;5007660;28;20070;-76
2020/12/18 12:30:26;;;;;;;12.63;7.50;;;9.50;93.40;;;;;;5003501;28;20053;-75
2020/12/18 12:32:56;;;;;;;17.10;8.50;;;9.50;93.00;;;;;;5009668;28;20506;-76
2020/12/18 12:35:23;;;;;;;12.27;6.32;;;9.70;93.00;;;;;;4998274;28;20480;-75
2020/12/18 12:37:50;;;;;;;14.70;7.18;;;9.70;93.10;;;;;;5006555;28;20092;-75
2020/12/18 12:40:16;;;;;;;17.02;7.53;;;9.60;92.90;;;;;;5001556;28;20044;-75
2020/12/18 12:42:43;;;;;;;11.98;6.80;;;9.60;93.10;;;;;;5009271;28;20042;-75
2020/12/18 12:45:10;;;;;;;13.55;7.13;;;9.60;93.00;;;;;;5005588;28;20038;-75
2020/12/18 12:47:36;;;;;;;11.00;6.82;;;9.70;93.00;;;;;;4998263;28;20108;-75